Weather observations for the past three days for
Rochester - St. Mary's Hospital Heliport
Metric (Imperial)
Date Time (cdt) Wind (kph) Vis. (km) Weather Sky Cond. Temperature (ºC) Relative Humidity Wind Chill (°C) Heat Index (°C) Pressure Precipitation (cm)
Air Dwpt 6 hour altimeter (cm) sea level (mb) 1 hr 3 hr 6 hr
Max. Min.
01 20:35 SE 6 16.09 Overcast OVC110 25.5 20.5 74% 27 76.07 0.0
01 20:15 SE 6 16.09 Mostly Cloudy BKN110 26.6 17.6 58% 27 76.05 0.0
01 19:55 Calm 16.09 Mostly Cloudy BKN120 26.5 17.6 58% 27 76.05 0.0
01 19:35 S 6 16.09 Mostly Cloudy BKN110 26.9 17.8 58% 28 76.05 0.0
01 19:15 Calm 16.09 Partly Cloudy SCT120 27.4 17.3 54% 28 76.05 0.0
01 18:55 Calm 16.09 Partly Cloudy SCT110 27.5 17.1 30.7 27.5 53% 28 76.07 0.0
01 18:35 Calm 16.09 Partly Cloudy SCT110 27.5 17.9 56% 28 76.07 0.0
01 18:15 Calm 16.09 Partly Cloudy SCT110 27.7 17.7 55% 29 76.07 0.0
01 17:55 Calm 16.09 Fair CLR 28.2 17 51% 29 76.05 0.0
01 17:35 Calm 16.09 Partly Cloudy SCT120 28.1 16.9 51% 29 76.05 0.0
01 17:15 Calm 16.09 Fair CLR 28 17.5 53% 29 76.07 0.0
01 16:55 SW 7 16.09 Partly Cloudy SCT090 SCT110 28.3 17.3 51% 29 76.07 0.0
01 16:35 SW 9 16.09 Partly Cloudy SCT090 SCT120 29 16.4 47% 29 76.07 0.0
01 16:15 Calm 16.09 Partly Cloudy SCT120 29.3 15.9 44% 29 76.05 0.0
01 15:55 S 7 16.09 Fair CLR 29.6 14.8 41% 29 76.05 0.0
01 15:35 E 6 16.09 Fair CLR 29.9 13.7 37% 29 76.02 0.0
01 15:15 SE 6 16.09 Fair CLR 30.5 13.7 36% 30 76.1 0.0
01 14:55 W 6 16.09 Fair CLR 30.3 14 37% 30 76.12 0.0
01 14:35 S 6 16.09 Fair CLR 29.6 13.8 38% 29 76.12 0.0
01 14:15 S 6 16.09 Fair CLR 29.5 13 36% 29 76.12 0.0
01 13:55 Calm 16.09 Fair CLR 29.7 12.2 34% 29 76.1 0.0
01 13:35 W 6 16.09 Fair CLR 29.5 12.1 34% 29 76.15 0.0
01 13:15 NW 7 16.09 Fair CLR 29.7 12.3 34% 29 76.15 0.0
01 12:55 Calm 16.09 Fair CLR 29.6 12.7 29.6 19.8 35% 29 76.17 0.0
01 12:35 Calm 16.09 Fair CLR 29.5 11.7 33% 29 76.17 0.0
01 12:15 Calm 16.09 Fair CLR 29.5 11.7 33% 29 76.17 0.0
01 11:55 NW 6 16.09 Fair CLR 28.7 12.8 38% 28 76.17 0.0
01 11:35 W 9 16.09 Fair CLR 28.3 12.1 37% 28 76.17 0.0
01 11:15 NW 9 16.09 Fair CLR 27.9 13.3 41% 28 76.17 0.0
01 10:55 N 7 16.09 Fair CLR 27.3 15 47% 28 76.17 0.0
01 10:35 NW 7 16.09 Fair CLR 26.5 16.5 54% 27 76.17 0.0
01 10:15 Calm 16.09 Fair CLR 26.1 17.1 58% 27 76.17 0.0
01 09:35 Calm 16.09 Fair CLR 24.6 16.3 60% 26 76.17 0.0
01 09:15 Calm 16.09 Fair CLR 23.3 18 72% 76.2 0.0
01 08:55 Calm 16.09 Fair CLR 22 18.7 82% 76.2 0.0
01 08:35 Calm 16.09 Fair CLR 21.1 18.9 87% 76.17 0.0
01 08:15 Calm 16.09 Fair CLR 20.5 19.2 92% 76.17 0.0
01 07:35 Calm 16.09 Partly Cloudy SCT120 19.9 19.9 100% 76.17 0.0
01 07:15 Calm 16.09 Mostly Cloudy BKN110 20 19.7 98% 76.17 0.0
01 06:55 Calm 16.09 Mostly Cloudy BKN110 19.7 19.3 22.8 19.5 98% 76.15 0.0
01 06:35 Calm 16.09 Fair CLR 19.6 19.4 99% 76.15 0.0
01 06:15 Calm 16.09 Fair CLR 19.5 19.5 100% 76.15 0.0
01 04:55 Calm 16.09 Fair CLR 20.7 17.5 82% 76.1 0.0
01 04:35 Calm 16.09 Fair CLR 21.2 17.5 80% 76.07 0.0
01 04:15 Calm 16.09 Fair CLR 20.8 18 84% 76.1 0.0
01 03:55 Calm 16.09 Fair CLR 21.3 17.7 80% 76.1 0.0
01 03:35 Calm 16.09 Fair CLR 21 18.2 84% 76.1 0.0
01 03:15 Calm 16.09 Partly Cloudy SCT120 21.1 18 83% 76.07 0.0
01 02:55 Calm 16.09 Partly Cloudy SCT120 21.3 18 82% 76.1 0.0
01 02:35 Calm 16.09 Partly Cloudy SCT120 21.6 18.1 81% 76.1 0.0
01 02:15 W 7 16.09 Partly Cloudy SCT120 22 18 78% 76.12 0.0
01 01:55 Calm 16.09 Fair CLR 22.5 17.6 74% 76.12 0.0
01 01:35 W 6 16.09 Fair CLR 22.8 17.5 72% 76.12 0.0
01 01:15 W 7 16.09 Fair CLR 22.6 17.6 73% 76.12 0.0
01 00:55 W 6 16.09 Fair CLR 22.8 18.2 28.6 22.8 75% 76.1 0.0
01 00:35 W 7 16.09 Fair CLR 23.1 18.1 74% 76.07 0.0
01 00:15 W 6 16.09 Fair CLR 23.3 18.3 74% 76.07 0.0
31 23:55 W 6 16.09 Fair CLR 23.6 18.7 74% 76.07 0.0
31 23:35 Calm 16.09 Fair CLR 24.3 18.8 71% 25 76.07 0.0
31 23:15 W 6 16.09 Fair CLR 24.5 18.8 71% 25 76.07 0.0
31 22:55 W 7 16.09 Fair CLR 24.6 19.1 72% 25 76.05 0.0
31 22:35 W 7 16.09 Fair CLR 24.9 19.5 72% 26 76.05 0.0
31 22:15 W 6 16.09 Fair CLR 25.2 20 73% 26 76.05 0.0
31 21:55 W 9 16.09 Fair CLR 25.6 20.6 74% 27 76.05 0.0
31 21:35 W 6 16.09 Fair CLR 26 21.7 77% 28 76.05 0.0
31 21:15 W 9 16.09 Fair CLR 26.3 22.9 82% 28 76.02 0.0
31 20:55 W 6 16.09 Fair CLR 26.8 23.3 81% 29 76.02 0.0
31 20:35 W 7 16.09 Fair CLR 27 23.5 81% 30 76 0.0
31 20:15 SW 9 16.09 Fair CLR 27.3 23.2 78% 30 76 0.0
31 19:55 SW 9 16.09 Fair CLR 27.6 23 76% 31 75.97 0.0
31 19:35 SW 9 16.09 Fair CLR 28 23.1 75% 31 75.97 0.0
31 19:15 SW 9 16.09 Fair CLR 28.3 22.9 73% 32 75.97 0.0
31 18:55 SW 7 16.09 Fair CLR 28.6 22.5 30.1 28 70% 32 75.97 0.0
31 18:35 SW 7 16.09 Fair CLR 29.5 22 64% 33 75.95 0.0
31 18:15 S 9 16.09 Fair CLR 29.8 21.6 61% 33 75.95 0.0
31 17:55 SW 7 16.09 Fair CLR 29.8 21.2 60% 32 75.95 0.0
31 17:35 W 6 16.09 Fair CLR 30 20.9 58% 32 75.95 0.0
31 17:15 W 9 16.09 Partly Cloudy SCT023 29.6 21.3 61% 32 75.95 0.0
31 16:55 W 11 16.09 Partly Cloudy SCT023 29.2 22 65% 32 75.95 0.0
31 16:35 W 13 16.09 Partly Cloudy SCT021 29.1 22.5 68% 32 75.92 0.0
31 16:15 W 7 16.09 Fair CLR 29.4 22.1 65% 33 75.92 0.0
31 15:55 SW 9 16.09 Fair CLR 28.5 22.2 69% 31 75.92 0.0
31 15:35 S 7 16.09 Fair CLR 28.1 22.1 70% 31 75.92 0.0
31 15:15 W 6 16.09 Fair CLR 28.3 21.8 68% 31 75.92 0.0
31 14:55 NW 7 16.09 Fair CLR 28.5 21.8 67% 31 75.87 0.0
31 14:35 NW 7 16.09 Fair CLR 28.2 22.3 70% 31 75.87 0.0
31 14:15 NW 7 16.09 Fair CLR 28.6 21.9 67% 31 75.9 0.0
31 13:55 W 7 16.09 Fair CLR 29.3 21.2 62% 32 75.9 0.0
31 13:35 W 7 16.09 Fair CLR 29.5 21 60% 32 75.87 0.0
31 13:15 Calm 16.09 Fair CLR 29.9 20.5 57% 32 75.87 0.0
31 12:55 W 7 16.09 Fair CLR 30.1 20.5 30.2 21.7 56% 32 75.87 0.0
31 12:35 Calm 16.09 Fair CLR 30 21.2 59% 33 75.9 0.0
31 12:15 Calm 16.09 Fair CLR 28.9 21.5 64% 32 75.92 0.0
31 11:55 SW 11 16.09 Fair CLR 28.2 21.9 69% 31 75.92 0.0
31 11:35 Calm 16.09 Fair CLR 27.6 21.7 70% 30 75.95 0.0
31 11:15 W 6 16.09 Fair CLR 27.2 22 73% 30 75.92 0.0
31 10:55 W 13 16.09 Fair CLR 27.1 21.5 72% 29 75.9 0.0
31 10:35 W 11 16.09 Fair CLR 27.1 21.5 72% 29 75.87 0.0
31 10:15 SW 11 16.09 Fair CLR 26.7 21.8 75% 29 75.87 0.0
31 09:55 W 7 16.09 Fair CLR 26.2 21.9 77% 28 75.84 0.0
31 09:35 W 7 16.09 Fair CLR 25.8 22 80% 27 75.84 0.0
31 09:15 SW 9 16.09 Fair CLR 25.2 22 83% 26 75.82 0.0
31 08:55 SW 6 16.09 Fair CLR 24.9 21.7 82% 26 75.82 0.0
31 08:35 W 6 16.09 Fair CLR 24.6 21.5 83% 25 75.82 0.0
31 08:15 S 6 16.09 Fair CLR 23.7 22.1 91% 75.77 0.0
31 07:35 SE 6 16.09 Fair CLR 22 0 0% 75.77 0.0
31 07:15 SE 6 16.09 Fair CLR 22 0 0% 75.74 0.0
31 06:55 SE 6 16.09 Fair CLR 22 0 23 21.6 0% 75.74 0.0
31 06:35 SE 6 16.09 Fair CLR 22 0 0% 75.72 0.0
31 06:15 S 7 16.09 Fair CLR 22 0 0% 75.72 0.0
31 05:55 S 11 16.09 Fair CLR 22 0 0% 75.72 0.0
31 05:35 S 9 16.09 Fair CLR 22 0 0% 75.72 0.0
31 05:15 S 7 16.09 Fair CLR 23 0 0% 75.72 0.0
31 04:55 S 15 16.09 Fair CLR 23 0 0% 75.72 0.0
31 04:35 S 17 16.09 Fair CLR 23 0 0% 75.72 0.0
31 03:15 S 13 16.09 Fair CLR 23 0 0% 75.69 0.0
31 02:55 SE 13 16.09 Fair CLR 23 0 0% 75.72 0.0
31 02:35 SE 7 16.09 Fair CLR 23 0 0% 75.74 0.0
31 02:15 SE 7 16.09 Fair CLR 23 0 0% 75.74 0.0
31 01:35 SE 7 16.09 Fair CLR 23 23 100% 75.74 0.0
31 00:55 SE 11 16.09 Fair CLR 22.8 22.7 25.3 22.6 99% 75.77 0.0
31 00:35 SE 11 16.09 Fair CLR 22.9 21.8 94% 75.79 0.0
31 00:15 SE 9 16.09 Fair CLR 22.7 21.2 91% 75.79 0.0
30 23:55 SE 9 16.09 Fair CLR 22.8 20.8 89% 75.79 0.0
30 23:35 SE 11 16.09 Fair CLR 22.8 20.5 87% 75.79 0.0
30 23:15 SE 13 16.09 Fair CLR 22.8 20.3 86% 75.79 0.0
30 22:55 SE 9 16.09 Fair CLR 22.6 20.1 86% 75.79 0.0
30 22:35 SE 13 16.09 Fair CLR 22.7 19.9 84% 75.82 0.0
30 22:15 SE 13 16.09 Fair CLR 23 19.8 82% 75.84 0.0
30 21:55 SE 13 16.09 Fair CLR 23 19.6 81% 75.84 0.0
30 21:35 SE 11 16.09 Fair CLR 23.1 19.5 80% 75.84 0.0
30 21:15 SE 9 16.09 Fair CLR 23.3 19.5 79% 75.87 0.0
30 20:55 SE 15 16.09 Fair CLR 23.5 19.2 77% 75.87 0.0
30 20:35 SE 17 G 28 16.09 Fair CLR 23.6 19 76% 75.84 0.0
30 20:15 SE 19 G 31 16.09 Fair CLR 23.9 18.6 72% 25 75.82 0.0
30 19:55 SE 20 G 31 16.09 Fair CLR 24.2 18.5 71% 25 75.82 0.0
30 19:35 SE 15 G 26 16.09 Fair CLR 24.6 18.8 70% 26 75.82 0.0
30 19:15 S 15 G 31 16.09 Fair CLR 25.1 18.7 68% 26 75.82 0.0
30 18:55 S 20 G 31 16.09 Fair CLR 25.5 18.5 28.9 25.5 65% 27 75.84 0.0
30 18:35 S 17 G 31 16.09 Fair CLR 25.6 18.5 65% 27 75.84 0.0
30 18:15 S 24 G 33 16.09 Fair CLR 26.1 17.8 60% 27 75.84 0.0
30 17:55 S 17 G 33 16.09 Fair CLR 26.5 17.5 58% 27 75.79 0.0
30 17:35 S 13 G 30 16.09 Fair CLR 27 17.8 57% 28 75.79 0.0
30 17:15 S 22 G 31 16.09 Fair CLR 27.5 17.8 56% 28 75.79 0.0
30 16:55 S 22 G 28 16.09 Fair CLR 27.5 18.3 57% 28 75.79 0.0
30 16:35 S 17 16.09 Fair CLR 27.1 17.9 57% 28 75.77 0.0
30 16:15 S 19 G 28 16.09 Fair CLR 27.6 17.9 56% 28 75.77 0.0
30 15:55 S 15 G 37 16.09 Fair CLR 28.4 18.5 55% 29 75.77 0.0
30 15:35 S 20 G 28 16.09 Fair CLR 28.8 18.8 55% 30 75.77 0.0
30 15:15 S 20 16.09 Fair CLR 28.5 18.6 55% 30 75.77 0.0
30 14:55 SE 20 G 28 16.09 Fair CLR 27.9 19 58% 29 75.82 0.0
30 14:35 SE 17 G 28 16.09 Fair CLR 27.8 19.1 59% 29 75.79 0.0
30 14:15 SE 19 G 28 16.09 Fair CLR 27.7 20.2 64% 29 75.79 0.0
30 13:55 SE 17 16.09 Fair CLR 27.7 19.8 62% 29 75.77 0.0
30 13:35 SE 11 16.09 Fair CLR 27.5 19.1 60% 29 75.77 0.0
30 13:15 SE 13 16.09 Fair CLR 27 19.1 62% 28 75.77 0.0
30 12:55 SE 13 16.09 Fair CLR 27.1 18.9 27.1 19.5 61% 28 75.77 0.0
30 12:35 SE 9 16.09 Fair CLR 26.8 18.8 62% 28 75.79 0.0
30 12:15 Calm 16.09 Fair CLR 25.6 19.1 67% 27 75.82 0.0
30 11:55 S 9 16.09 Fair CLR 25.5 19.3 69% 27 75.9 0.0
30 11:35 S 15 16.09 Fair CLR 25.6 19.7 70% 27 75.87 0.0
30 11:15 S 11 16.09 Fair CLR 25.6 19.6 70% 27 75.84 0.0
30 10:55 S 11 16.09 Fair CLR 26 19.5 67% 27 75.79 0.0
30 10:35 SE 7 16.09 Fair CLR 25.6 19.5 69% 27 75.77 0.0
30 10:15 SE 6 16.09 Fair CLR 25.4 19.1 68% 26 75.77 0.0
30 09:55 SW 6 16.09 Fair CLR 25 19.2 70% 26 75.77 0.0
30 09:35 S 6 16.09 Fair CLR 24.2 19.4 75% 25 75.77 0.0
30 09:15 Calm 16.09 Fair CLR 23 20 83% 75.74 0.0
30 08:55 Calm 16.09 Fair CLR 22.6 20.2 86% 75.77 0.0
30 08:35 SE 9 16.09 Fair CLR 21.6 20.8 95% 75.77 0.0
30 08:15 SE 7 16.09 Fair CLR 21 21 100% 75.77 0.0
30 07:55 SE 6 16.09 Fair CLR 20 0 0% 75.77 0.0
30 07:35 SE 7 16.09 Fair CLR 20 0 0% 75.77 0.0
30 07:15 SE 9 16.09 Fair CLR 20 0 0% 75.74 0.0
30 06:55 SE 7 16.09 Fair CLR 20 0 21 19.5 0% 75.77 0.0
30 06:35 SE 7 16.09 Fair CLR 20 0 0% 75.77 0.0
30 06:15 SE 9 16.09 Fair CLR 20 0 0% 75.74 0.0
30 05:55 SE 9 16.09 Fair CLR 20 0 0% 75.74 0.0
30 05:35 SE 11 16.09 Fair CLR 20 0 0% 75.77 0.0
30 05:15 SE 13 16.09 Fair CLR 20 0 0% 75.77 0.0
30 04:55 SE 15 16.09 Fair CLR 20 0 0% 75.77 0.0
30 04:35 SE 17 16.09 Fair CLR 21 0 0% 75.77 0.0
30 04:15 SE 15 16.09 Fair CLR 21 0 0% 75.77 0.0
30 03:55 SE 19 16.09 Fair CLR 21 0 0% 75.74 0.0
30 03:35 SE 15 G 26 16.09 Fair CLR 21 0 0% 75.77 0.0
30 03:15 SE 20 16.09 Fair CLR 21 0 0% 75.77 0.0
30 02:55 SE 17 16.09 Fair CLR 21 0 0% 75.77 0.0
30 02:35 SE 19 16.09 Fair CLR 21 0 0% 75.79 0.0
30 02:15 SE 17 16.09 Fair CLR 21 0 0% 75.79 0.0
30 01:55 SE 15 16.09 Fair CLR 21 0 0% 75.79 0.0
30 01:35 SE 15 16.09 Fair CLR 20 0 0% 75.82 0.0
30 01:15 SE 13 16.09 Fair CLR 21 0 0% 75.84 0.0
30 00:55 SE 13 16.09 Fair CLR 21 0 23.5 20.6 0% 75.84 0.0
29 23:55 SE 13 16.09 Fair CLR 21 20.3 96% 75.87 0.0
29 23:35 SE 13 16.09 Fair CLR 21.1 19.4 90% 75.87 0.0
29 23:15 SE 11 16.09 Fair CLR 21.5 18.9 85% 75.9 0.0
29 22:55 SE 11 16.09 Fair CLR 21.5 18.7 84% 75.92 0.0
29 22:35 SE 17 16.09 Fair CLR 21.5 18.6 84% 75.9 0.0
29 22:15 SE 11 16.09 Fair CLR 21.6 18.4 82% 75.9 0.0
29 21:55 SE 13 16.09 Fair CLR 21.9 18.2 80% 75.92 0.0
29 21:35 SE 11 16.09 Fair CLR 22 18.1 79% 75.92 0.0
29 21:15 SE 9 16.09 Fair CLR 22.1 18 78% 75.92 0.0
Date Time (cdt) Wind (kph) Vis. (km) Weather Sky Cond. Air Dwpt Max. Min. Relative Humidity Wind Chill (°C) Heat Index (°C) altimeter (cm) sea level (mb) 1 hr 3 hr 6 hr
6 hour
Temperature (ºC) Pressure Precipitation (cm)